Time;durP1;ratioP1;P1;durP2;ratioP2;P2;SDS_P1;SDS_P2;PMS_P1;PMS_P2;Temp;Humidity;BMP_temperature;BMP_pressure;BME280_temperature;BME280_humidity;BME280_pressure;Samples;Min_cycle;Max_cycle;Signal;HPM_P1;HPM_P2
2022/04/24 00:00:08;;;;;;;5.27;4.13;;;6.80;99.90;6.70;99514.00;;;;4874240;28;109874;-65
2022/04/24 00:02:33;;;;;;;4.37;3.87;;;6.80;99.90;6.70;99506.00;;;;4873957;28;93487;-65
2022/04/24 00:04:59;;;;;;;6.90;4.13;;;6.90;99.90;6.80;99503.00;;;;4874863;28;109525;-65
2022/04/24 00:07:25;;;;;;;6.50;4.23;;;6.90;99.90;6.80;99506.00;;;;4857586;28;112659;-65
2022/04/24 00:09:51;;;;;;;4.33;3.93;;;6.90;99.90;6.80;99507.00;;;;4862848;28;93983;-65
2022/04/24 00:12:35;;;;;;;8.97;4.13;;;6.90;99.90;6.80;99503.00;;;;4843837;28;107292;-65
2022/04/24 00:15:01;;;;;;;8.03;4.53;;;7.30;99.90;6.90;99500.00;;;;4856532;28;93304;-65
2022/04/24 00:17:27;;;;;;;8.40;5.37;;;7.00;99.90;6.90;99481.00;;;;4871767;28;104008;-65
2022/04/24 00:19:52;;;;;;;5.23;4.07;;;7.00;99.90;6.90;99480.00;;;;4874644;28;110661;-65
2022/04/24 00:22:18;;;;;;;8.97;5.33;;;7.00;99.90;6.90;99481.00;;;;4873847;28;104821;-65
2022/04/24 00:24:43;;;;;;;8.07;4.27;;;7.00;99.90;6.90;99481.00;;;;4873782;28;122930;-66
2022/04/24 00:27:09;;;;;;;4.17;3.77;;;7.10;99.90;6.90;99472.00;;;;4872672;28;120387;-65
2022/04/24 00:29:36;;;;;;;8.27;4.37;;;7.00;99.90;6.90;99468.00;;;;4875071;28;92723;-66
2022/04/24 00:32:02;;;;;;;6.10;4.40;;;7.00;99.90;6.80;99469.00;;;;4875556;28;92958;-65
2022/04/24 00:34:28;;;;;;;6.10;3.27;;;6.90;99.90;6.80;99470.00;;;;4873750;28;95212;-66
2022/04/24 00:36:54;;;;;;;4.83;3.70;;;6.90;99.90;6.80;99473.00;;;;4861880;28;93082;-65
2022/04/24 00:39:20;;;;;;;6.90;4.10;;;7.30;99.90;6.80;99466.00;;;;4855045;28;110384;-65
2022/04/24 00:41:50;;;;;;;4.83;4.20;;;7.00;99.90;6.80;99450.00;;;;4855734;28;92903;-65
2022/04/24 00:44:18;;;;;;;4.53;4.10;;;6.90;99.90;6.80;99456.00;;;;4855311;28;93350;-65
2022/04/24 00:46:58;;;;;;;6.03;4.30;;;6.90;99.90;6.70;99454.00;;;;4866953;28;109401;-65
2022/04/24 00:49:25;;;;;;;4.40;3.83;;;6.90;99.90;6.70;99450.00;;;;4862234;28;93308;-65
2022/04/24 00:51:51;;;;;;;4.33;3.93;;;6.80;99.90;6.70;99453.00;;;;4877648;28;92121;-65
2022/04/24 00:54:17;;;;;;;5.87;4.87;;;7.20;99.90;6.70;99449.00;;;;4877403;28;109603;-65
2022/04/24 00:56:43;;;;;;;7.37;4.20;;;7.20;99.90;6.70;99455.00;;;;4871845;28;123480;-65
2022/04/24 00:59:12;;;;;;;8.40;5.37;;;6.80;99.90;6.70;99448.00;;;;4877891;28;94211;-65
2022/04/24 01:01:38;;;;;;;5.27;4.77;;;6.80;99.90;6.70;99442.00;;;;4870743;28;94352;-65
2022/04/24 01:04:06;;;;;;;5.00;3.73;;;7.20;99.90;6.60;99450.00;;;;4858994;28;93927;-65
2022/04/24 01:06:36;;;;;;;8.43;5.07;;;6.80;99.90;6.60;99440.00;;;;4865808;28;114342;-65
2022/04/24 01:09:33;;;;;;;6.20;3.80;;;6.70;99.90;6.50;99443.00;;;;4871781;28;93083;-65
2022/04/24 01:11:59;;;;;;;7.60;4.90;;;6.70;99.90;6.50;99439.00;;;;4850607;28;92750;-65
2022/04/24 01:14:27;;;;;;;6.70;4.63;;;6.60;99.90;6.40;99435.00;;;;4857427;28;116197;-65
2022/04/24 01:16:53;;;;;;;11.20;4.17;;;7.10;99.90;6.40;99430.00;;;;4868734;28;92883;-65
2022/04/24 01:19:20;;;;;;;5.13;4.63;;;6.50;99.90;6.30;99430.00;;;;4877287;28;100780;-66
2022/04/24 01:21:47;;;;;;;11.27;5.47;;;6.50;99.90;6.30;99429.00;;;;4895762;28;98231;-65
2022/04/24 01:24:16;;;;;;;6.37;4.63;;;6.40;99.90;6.30;99425.00;;;;4895465;28;94824;-65
2022/04/24 01:26:42;;;;;;;6.40;4.93;;;6.30;99.90;6.20;99417.00;;;;4877064;28;94324;-66
2022/04/24 01:29:11;;;;;;;6.37;4.70;;;6.80;99.90;6.20;99419.00;;;;4875676;28;98142;-65
2022/04/24 01:31:38;;;;;;;7.93;4.57;;;6.70;99.90;6.10;99418.00;;;;4877802;28;92920;-65
2022/04/24 01:34:04;;;;;;;7.70;6.27;;;6.40;99.90;6.10;99420.00;;;;4876223;28;113108;-65
2022/04/24 01:36:30;;;;;;;4.67;3.97;;;6.20;99.90;6.10;99406.00;;;;4859811;28;93613;-65
2022/04/24 01:38:56;;;;;;;4.00;3.60;;;6.30;99.90;6.10;99410.00;;;;4857921;28;110412;-65
2022/04/24 01:41:22;;;;;;;6.37;5.33;;;6.60;99.90;6.10;99410.00;;;;4857944;28;108839;-65
2022/04/24 01:43:48;;;;;;;7.27;4.53;;;6.30;99.90;6.10;99409.00;;;;4856637;28;122701;-65
2022/04/24 01:46:14;;;;;;;8.70;5.10;;;6.20;99.90;6.00;99400.00;;;;4873472;28;93685;-65
2022/04/24 01:48:40;;;;;;;6.13;5.03;;;6.20;99.90;6.00;99400.00;;;;4876524;28;94018;-65
2022/04/24 01:51:08;;;;;;;8.97;5.43;;;6.20;99.90;6.00;99402.00;;;;4876709;28;108985;-65
2022/04/24 01:53:34;;;;;;;7.77;4.97;;;6.10;99.90;6.00;99405.00;;;;4859415;28;103385;-66
2022/04/24 01:56:05;;;;;;;5.83;4.57;;;6.10;99.90;6.00;99406.00;;;;4865922;28;93949;-65
2022/04/24 01:58:31;;;;;;;9.23;4.90;;;6.10;99.90;6.00;99401.00;;;;4859606;28;92915;-65
2022/04/24 02:00:57;;;;;;;7.47;5.80;;;6.10;99.90;6.00;99406.00;;;;4858071;28;95409;-65
2022/04/24 02:03:24;;;;;;;5.50;4.97;;;6.10;99.90;5.90;99391.00;;;;4870026;28;108633;-65
2022/04/24 02:05:50;;;;;;;7.20;5.60;;;6.10;99.90;5.90;99390.00;;;;4858803;28;111487;-65
2022/04/24 02:08:16;;;;;;;6.37;4.17;;;5.80;99.90;5.90;99387.00;;;;4875488;28;92868;-65
2022/04/24 02:10:42;;;;;;;6.50;5.13;;;6.30;99.90;5.90;99392.00;;;;4877448;28;92818;-65
2022/04/24 02:13:08;;;;;;;8.10;4.63;;;6.10;99.90;5.80;99389.00;;;;4874956;28;124039;-65
2022/04/24 02:15:35;;;;;;;6.00;4.60;;;6.00;99.90;5.80;99386.00;;;;4876184;28;98440;-65
2022/04/24 02:18:01;;;;;;;7.67;5.37;;;5.90;99.90;5.80;99387.00;;;;4873532;28;92775;-65
2022/04/24 02:20:30;;;;;;;8.03;5.63;;;6.00;99.90;5.80;99383.00;;;;4867657;28;94414;-65
2022/04/24 02:22:58;;;;;;;10.23;5.43;;;5.90;99.90;5.70;99376.00;;;;4876996;28;94047;-65
2022/04/24 02:25:28;;;;;;;10.17;6.07;;;5.90;99.90;5.70;99372.00;;;;4876342;28;100144;-65
2022/04/24 02:27:55;;;;;;;9.93;5.83;;;5.90;99.90;5.70;99360.00;;;;4857869;28;93122;-65
2022/04/24 02:30:28;;;;;;;8.57;5.17;;;5.80;99.90;5.60;99368.00;;;;4857365;28;100590;-65
2022/04/24 02:32:57;;;;;;;9.30;6.13;;;5.80;99.90;5.60;99350.00;;;;4856733;28;112850;-66
2022/04/24 02:35:24;;;;;;;7.90;6.10;;;5.70;99.90;5.60;99353.00;;;;4857814;28;93026;-65
2022/04/24 02:37:49;;;;;;;9.13;6.53;;;5.80;99.90;5.60;99352.00;;;;4858178;28;93968;-65
2022/04/24 02:40:19;;;;;;;7.20;5.50;;;5.70;99.90;5.60;99349.00;;;;4876496;28;92927;-65
2022/04/24 02:42:45;;;;;;;7.47;5.60;;;5.70;99.90;5.60;99344.00;;;;4876528;28;93340;-65
2022/04/24 02:45:11;;;;;;;11.30;5.50;;;5.70;99.90;5.60;99350.00;;;;4874554;28;122984;-65
2022/04/24 02:47:40;;;;;;;9.73;6.97;;;5.70;99.90;5.60;99344.00;;;;4875689;28;109222;-65
2022/04/24 02:50:06;;;;;;;7.80;5.47;;;6.10;99.90;5.60;99346.00;;;;4876075;28;95112;-66
2022/04/24 02:52:32;;;;;;;10.23;5.73;;;5.70;99.90;5.60;99338.00;;;;4845266;28;93029;-65
2022/04/24 02:54:58;;;;;;;7.83;5.47;;;5.80;99.90;5.60;99342.00;;;;4856387;28;122975;-65
2022/04/24 02:57:23;;;;;;;8.70;5.47;;;5.70;99.90;5.60;99343.00;;;;4872959;28;92760;-65
2022/04/24 02:59:49;;;;;;;8.17;6.40;;;5.70;99.90;5.60;99347.00;;;;4864300;28;109983;-64
2022/04/24 03:02:18;;;;;;;17.07;6.93;;;5.90;99.90;5.60;99349.00;;;;4875113;28;94617;-64
2022/04/24 03:04:54;;;;;;;7.77;5.43;;;5.80;99.90;5.50;99335.00;;;;4867962;28;96774;-65
2022/04/24 03:07:19;;;;;;;8.57;5.40;;;5.70;99.90;5.50;99348.00;;;;4876097;28;92844;-65
2022/04/24 03:09:45;;;;;;;8.73;6.27;;;5.70;99.90;5.50;99348.00;;;;4858972;28;108328;-65
2022/04/24 03:12:11;;;;;;;7.03;6.07;;;5.60;99.90;5.50;99343.00;;;;4855791;28;122478;-65
2022/04/24 03:14:52;;;;;;;6.27;5.60;;;6.00;99.90;5.40;99345.00;;;;4856600;28;93291;-65
2022/04/24 03:17:17;;;;;;;9.87;5.60;;;5.60;99.90;5.40;99353.00;;;;4856420;28;110749;-65
2022/04/24 03:19:43;;;;;;;6.77;5.43;;;5.60;99.90;5.30;99344.00;;;;4871077;28;108362;-64
2022/04/24 03:22:09;;;;;;;7.33;5.70;;;5.50;99.90;5.30;99354.00;;;;4893795;28;94150;-65
2022/04/24 03:24:35;;;;;;;9.03;6.10;;;5.50;99.90;5.20;99341.00;;;;4894023;28;122777;-65
2022/04/24 03:27:00;;;;;;;7.13;4.97;;;5.40;99.90;5.20;99351.00;;;;4889889;28;109980;-65
2022/04/24 03:29:26;;;;;;;12.03;6.27;;;5.40;99.90;5.20;99336.00;;;;4863469;28;106121;-65
2022/04/24 03:31:53;;;;;;;9.07;6.70;;;5.40;99.90;5.20;99340.00;;;;4856033;28;94004;-65
2022/04/24 03:34:18;;;;;;;9.67;6.57;;;5.80;99.90;5.20;99352.00;;;;4856670;28;93443;-65
2022/04/24 03:36:44;;;;;;;8.93;6.37;;;5.30;99.90;5.20;99342.00;;;;4856094;28;92848;-65
2022/04/24 03:39:10;;;;;;;7.77;6.13;;;5.30;99.90;5.10;99335.00;;;;4856684;28;110299;-65
2022/04/24 03:41:35;;;;;;;8.93;5.93;;;5.30;99.90;5.10;99338.00;;;;4856365;28;94198;-65
2022/04/24 03:44:01;;;;;;;7.00;5.10;;;5.30;99.90;5.10;99342.00;;;;4855454;28;114365;-65
2022/04/24 03:46:27;;;;;;;5.77;5.17;;;5.30;99.90;5.00;99345.00;;;;4854828;28;110065;-65
2022/04/24 03:48:52;;;;;;;10.20;6.50;;;5.20;99.90;5.00;99345.00;;;;4863350;28;108868;-66
2022/04/24 03:51:18;;;;;;;11.20;7.93;;;5.60;99.90;4.90;99346.00;;;;4865370;28;123784;-65
2022/04/24 03:53:44;;;;;;;14.03;7.53;;;5.10;99.90;4.90;99348.00;;;;4875120;28;95061;-65
2022/04/24 03:56:09;;;;;;;7.27;5.43;;;5.10;99.90;4.90;99350.00;;;;4883325;28;93024;-65
2022/04/24 03:58:35;;;;;;;8.43;6.07;;;5.10;99.90;4.90;99356.00;;;;4860416;28;109088;-65
2022/04/24 04:01:01;;;;;;;11.43;6.90;;;5.10;99.90;4.80;99353.00;;;;4874753;28;93860;-65
2022/04/24 04:03:26;;;;;;;8.27;5.93;;;5.10;99.90;4.80;99356.00;;;;4874076;28;122770;-66
2022/04/24 04:05:52;;;;;;;10.40;6.63;;;5.00;99.90;4.80;99352.00;;;;4875071;28;92720;-65
2022/04/24 04:08:18;;;;;;;12.43;6.37;;;5.00;99.90;4.80;99358.00;;;;4874074;28;92176;-65
2022/04/24 04:10:43;;;;;;;7.67;6.07;;;4.90;99.90;4.80;99351.00;;;;4854642;28;122583;-65
2022/04/24 04:13:09;;;;;;;11.80;6.43;;;5.00;99.90;4.70;99352.00;;;;4860339;28;120990;-65
2022/04/24 04:15:36;;;;;;;6.67;5.77;;;4.90;99.90;4.70;99353.00;;;;4874408;28;93589;-67
2022/04/24 04:18:02;;;;;;;7.70;6.20;;;4.90;99.90;4.70;99362.00;;;;4875268;28;92917;-65
2022/04/24 04:20:31;;;;;;;15.97;8.10;;;4.90;99.90;4.70;99336.00;;;;4893420;28;93097;-67
2022/04/24 04:22:58;;;;;;;9.17;6.60;;;4.90;99.90;4.70;99346.00;;;;4896610;28;122121;-65
2022/04/24 04:25:24;;;;;;;14.70;8.50;;;4.90;99.90;4.80;99343.00;;;;4897906;28;92640;-65
2022/04/24 04:27:50;;;;;;;8.77;7.03;;;4.90;99.90;4.80;99339.00;;;;4887069;28;92979;-65
2022/04/24 04:30:16;;;;;;;8.90;7.27;;;4.90;99.90;4.90;99349.00;;;;4875927;28;94197;-66
2022/04/24 04:32:42;;;;;;;11.77;6.67;;;5.00;99.90;4.90;99344.00;;;;4877766;28;105548;-65
2022/04/24 04:35:11;;;;;;;11.80;6.67;;;5.10;99.90;5.00;99357.00;;;;4875419;28;110500;-65
2022/04/24 04:37:39;;;;;;;8.47;6.67;;;5.10;99.90;5.00;99341.00;;;;4873124;28;93071;-65
2022/04/24 04:40:06;;;;;;;10.87;7.40;;;5.20;99.90;5.10;99345.00;;;;4858398;28;93981;-65
2022/04/24 04:42:32;;;;;;;8.00;7.00;;;5.20;99.90;5.10;99344.00;;;;4876551;28;116373;-65
2022/04/24 04:45:00;;;;;;;11.20;7.50;;;5.30;99.90;5.20;99351.00;;;;4878259;28;92936;-65
2022/04/24 04:47:27;;;;;;;13.47;8.73;;;5.30;99.90;5.30;99350.00;;;;4878031;28;92858;-65
2022/04/24 04:49:54;;;;;;;11.60;8.73;;;5.40;99.90;5.30;99344.00;;;;4864285;28;92896;-65
2022/04/24 04:52:21;;;;;;;12.37;7.83;;;5.70;99.90;5.40;99341.00;;;;4875211;28;93875;-65
2022/04/24 04:54:46;;;;;;;11.63;9.30;;;5.50;99.90;5.50;99341.00;;;;4878102;28;92870;-65
2022/04/24 04:57:12;;;;;;;9.03;7.53;;;5.90;99.90;5.60;99350.00;;;;4852513;28;92598;-65
2022/04/24 04:59:38;;;;;;;11.57;8.27;;;6.20;99.90;5.80;99340.00;;;;4869883;28;93260;-65
2022/04/24 05:02:04;;;;;;;14.50;9.00;;;5.80;99.90;5.90;99331.00;;;;4859001;28;115402;-65
2022/04/24 05:04:30;;;;;;;12.67;8.87;;;6.00;99.90;6.10;99327.00;;;;4877356;28;100316;-65
2022/04/24 05:06:56;;;;;;;11.53;7.57;;;6.10;99.90;6.30;99335.00;;;;4879837;28;92852;-65
2022/04/24 05:09:21;;;;;;;9.83;7.90;;;6.30;99.90;6.40;99341.00;;;;4869700;28;121982;-65
2022/04/24 05:11:47;;;;;;;13.53;8.70;;;6.40;99.90;6.60;99339.00;;;;4859993;28;122180;-64
2022/04/24 05:14:13;;;;;;;14.07;8.20;;;6.70;99.90;6.80;99351.00;;;;4860307;28;110607;-65
2022/04/24 05:16:38;;;;;;;10.83;7.60;;;6.80;99.90;7.00;99336.00;;;;4860527;28;108381;-65
2022/04/24 05:19:07;;;;;;;11.93;7.60;;;7.30;99.90;7.20;99344.00;;;;4847758;28;121692;-65
2022/04/24 05:21:34;;;;;;;10.73;7.53;;;7.20;99.90;7.40;99341.00;;;;4897415;28;92956;-65
2022/04/24 05:24:00;;;;;;;10.27;8.50;;;7.40;99.90;7.60;99351.00;;;;4899203;28;92866;-64
2022/04/24 05:26:28;;;;;;;10.40;7.53;;;7.60;99.90;7.80;99353.00;;;;4899482;28;92663;-65
2022/04/24 05:28:54;;;;;;;9.77;6.80;;;7.80;99.90;8.00;99350.00;;;;4874133;28;124253;-66
2022/04/24 05:31:20;;;;;;;15.40;8.70;;;7.90;99.90;8.20;99355.00;;;;4875030;28;94414;-64
2022/04/24 05:33:46;;;;;;;15.07;8.43;;;8.10;99.90;8.30;99348.00;;;;4872962;28;108168;-65
2022/04/24 05:36:12;;;;;;;8.63;6.90;;;8.30;99.90;8.40;99351.00;;;;4868984;28;108684;-65
2022/04/24 05:38:44;;;;;;;13.50;7.70;;;8.40;99.90;8.50;99344.00;;;;4871816;28;93743;-66
2022/04/24 05:41:10;;;;;;;10.30;7.23;;;8.50;99.90;8.70;99343.00;;;;4873204;28;93366;-65
2022/04/24 05:43:35;;;;;;;9.13;7.57;;;8.60;99.90;8.80;99345.00;;;;4873419;28;92792;-65
2022/04/24 05:46:01;;;;;;;12.67;7.87;;;8.80;99.90;9.00;99342.00;;;;4873568;28;107974;-65
2022/04/24 05:48:27;;;;;;;11.67;8.17;;;8.90;99.90;9.20;99329.00;;;;4873056;28;122934;-65
2022/04/24 05:50:52;;;;;;;14.70;7.50;;;9.10;99.90;9.30;99340.00;;;;4870788;28;121743;-65
2022/04/24 05:53:18;;;;;;;11.50;8.17;;;9.20;99.90;9.50;99343.00;;;;4872715;28;93762;-65
2022/04/24 05:55:44;;;;;;;12.03;7.87;;;9.40;99.90;9.60;99349.00;;;;4873505;28;102364;-65
2022/04/24 05:58:09;;;;;;;10.30;7.20;;;9.50;99.90;9.70;99348.00;;;;4867382;28;98155;-65
2022/04/24 06:00:36;;;;;;;12.67;7.53;;;9.60;99.90;9.80;99340.00;;;;4867389;28;122445;-65
2022/04/24 06:03:02;;;;;;;12.23;7.27;;;9.80;99.90;10.00;99346.00;;;;4873425;28;92992;-65
2022/04/24 06:05:28;;;;;;;14.63;8.80;;;10.40;99.90;10.10;99336.00;;;;4874397;28;92896;-65
2022/04/24 06:07:55;;;;;;;7.97;7.10;;;10.00;99.90;10.10;99330.00;;;;4855365;28;93048;-65
2022/04/24 06:10:20;;;;;;;12.80;7.37;;;10.10;99.90;10.30;99339.00;;;;4855621;28;92849;-64
2022/04/24 06:12:56;;;;;;;9.83;7.50;;;10.20;99.90;10.50;99340.00;;;;4869367;28;99477;-65
2022/04/24 06:15:24;;;;;;;11.33;7.27;;;10.40;99.90;10.60;99333.00;;;;4873176;28;93057;-65
2022/04/24 06:17:53;;;;;;;13.03;7.70;;;10.50;99.90;10.80;99330.00;;;;4866797;28;95186;-65
2022/04/24 06:20:21;;;;;;;10.67;7.17;;;10.70;99.90;10.90;99315.00;;;;4872585;28;94638;-65
2022/04/24 06:22:53;;;;;;;8.67;7.17;;;10.80;99.90;11.00;99325.00;;;;4855271;28;93340;-65
2022/04/24 06:25:26;;;;;;;9.60;7.33;;;10.90;99.90;11.20;99328.00;;;;4871943;28;92880;-66
2022/04/24 06:27:53;;;;;;;10.57;6.57;;;11.10;99.90;11.30;99317.00;;;;4872752;28;93577;-66
2022/04/24 06:30:23;;;;;;;10.33;7.47;;;11.20;99.90;11.40;99317.00;;;;4871158;28;93241;-65
2022/04/24 06:32:52;;;;;;;9.77;7.47;;;11.30;99.90;11.60;99318.00;;;;4873598;28;93235;-66
2022/04/24 06:35:19;;;;;;;10.50;6.93;;;11.50;99.90;11.70;99323.00;;;;4869637;28;92120;-65
2022/04/24 06:37:47;;;;;;;8.17;7.20;;;11.60;99.80;11.80;99311.00;;;;4872643;28;93991;-66
2022/04/24 06:40:15;;;;;;;8.63;6.20;;;11.80;98.70;11.90;99313.00;;;;4872179;28;93039;-65
2022/04/24 06:42:51;;;;;;;8.73;6.00;;;11.70;98.00;12.00;99300.00;;;;4871722;28;93944;-66
2022/04/24 06:45:25;;;;;;;11.43;6.37;;;11.90;98.20;12.20;99294.00;;;;4868982;28;93172;-66
2022/04/24 06:48:04;;;;;;;8.97;7.03;;;12.10;97.20;12.40;99290.00;;;;4872678;28;92845;-65
2022/04/24 06:50:30;;;;;;;8.63;5.93;;;12.20;96.40;12.60;99291.00;;;;4872494;28;92865;-66
2022/04/24 06:52:59;;;;;;;8.37;5.93;;;12.40;96.20;12.90;99285.00;;;;4872343;28;92723;-65
2022/04/24 06:55:27;;;;;;;8.33;5.43;;;12.70;95.40;13.20;99300.00;;;;4868477;28;92844;-66
2022/04/24 06:57:53;;;;;;;9.00;6.10;;;12.90;93.50;13.40;99288.00;;;;4872733;28;94021;-66
2022/04/24 07:00:20;;;;;;;9.17;5.47;;;13.20;92.50;13.60;99285.00;;;;4872424;28;93053;-66
2022/04/24 07:02:47;;;;;;;10.43;5.87;;;13.40;92.30;13.90;99279.00;;;;4872561;28;92894;-67
2022/04/24 07:05:14;;;;;;;6.87;5.30;;;13.70;89.70;14.20;99269.00;;;;4867710;28;93067;-66
2022/04/24 07:07:39;;;;;;;7.30;4.57;;;13.90;86.10;14.40;99266.00;;;;4871023;28;115652;-67
2022/04/24 07:10:06;;;;;;;7.27;5.50;;;14.20;83.50;14.70;99272.00;;;;4871883;28;97727;-66
2022/04/24 07:12:31;;;;;;;5.30;4.27;;;14.40;80.60;14.90;99284.00;;;;4870387;28;99982;-67
2022/04/24 07:14:57;;;;;;;5.55;4.72;;;14.70;75.70;15.10;99261.00;;;;4866509;28;108260;-66
2022/04/24 07:17:23;;;;;;;4.90;3.77;;;14.90;74.30;15.30;99276.00;;;;4871047;28;120613;-65
2022/04/24 07:19:48;;;;;;;6.47;3.67;;;15.10;69.80;15.50;99265.00;;;;4871171;28;122387;-65
2022/04/24 07:22:16;;;;;;;5.55;3.42;;;15.30;66.40;15.60;99277.00;;;;4870862;28;111173;-66
2022/04/24 07:24:42;;;;;;;5.78;3.83;;;15.40;63.10;15.70;99260.00;;;;4871449;28;108063;-65
2022/04/24 07:27:08;;;;;;;3.95;3.00;;;15.50;59.90;15.70;99271.00;;;;4865777;28;122174;-65
2022/04/24 07:29:33;;;;;;;6.32;3.05;;;15.50;60.40;15.80;99275.00;;;;4871347;28;122141;-65
2022/04/24 07:31:59;;;;;;;5.57;3.75;;;15.60;60.10;16.00;99273.00;;;;4870578;28;109414;-64
2022/04/24 07:34:25;;;;;;;3.85;3.55;;;15.80;60.40;16.20;99261.00;;;;4871324;28;107541;-65
2022/04/24 07:36:50;;;;;;;4.90;3.63;;;15.90;58.80;16.40;99269.00;;;;4870565;28;122080;-65
2022/04/24 07:39:16;;;;;;;2.58;2.38;;;16.10;58.90;16.60;99267.00;;;;4871048;28;121535;-65
2022/04/24 07:41:42;;;;;;;4.53;2.85;;;16.30;57.70;16.70;99266.00;;;;4853089;28;111489;-65
2022/04/24 07:44:07;;;;;;;4.47;3.42;;;16.50;55.90;16.90;99268.00;;;;4870554;28;109688;-65
2022/04/24 07:46:34;;;;;;;3.45;2.78;;;16.60;57.00;17.10;99270.00;;;;4870568;28;124440;-65
2022/04/24 07:49:00;;;;;;;6.78;3.03;;;16.80;55.30;17.30;99266.00;;;;4871925;28;93688;-65
2022/04/24 07:51:26;;;;;;;4.03;2.97;;;17.00;53.70;17.30;99261.00;;;;4870726;28;111381;-65
2022/04/24 07:53:51;;;;;;;5.00;2.97;;;17.10;52.80;17.30;99258.00;;;;4852490;28;93109;-69
2022/04/24 07:56:17;;;;;;;5.65;4.38;;;17.10;52.60;17.30;99266.00;;;;4853026;28;105002;-68
2022/04/24 07:58:43;;;;;;;9.82;3.72;;;17.10;52.30;17.40;99265.00;;;;4871290;28;94775;-69
2022/04/24 08:01:11;;;;;;;2.92;2.58;;;17.20;52.30;17.50;99262.00;;;;4871518;28;93049;-69
2022/04/24 08:03:36;;;;;;;3.17;2.58;;;17.30;51.60;17.60;99264.00;;;;4864797;28;92781;-69
2022/04/24 08:06:02;;;;;;;4.43;2.17;;;17.40;51.30;17.60;99261.00;;;;4863905;28;93834;-69
2022/04/24 08:08:28;;;;;;;5.10;2.88;;;17.50;49.90;17.60;99266.00;;;;4870557;28;123579;-69
2022/04/24 08:10:56;;;;;;;4.97;3.03;;;17.40;49.50;17.20;99254.00;;;;4870298;28;99646;-69
2022/04/24 08:13:24;;;;;;;5.78;3.30;;;17.20;49.50;17.30;99248.00;;;;4869209;28;91959;-69
2022/04/24 08:15:50;;;;;;;3.63;3.00;;;17.20;50.50;17.50;99251.00;;;;4871407;28;92993;-69
2022/04/24 08:18:17;;;;;;;6.28;3.17;;;17.20;51.30;17.70;99257.00;;;;4871018;28;92951;-69
2022/04/24 08:20:44;;;;;;;4.57;2.85;;;17.50;50.20;17.70;99248.00;;;;4867773;28;93836;-71
2022/04/24 08:23:12;;;;;;;3.53;2.65;;;17.60;47.90;17.70;99243.00;;;;4851567;28;92596;-70
2022/04/24 08:25:38;;;;;;;4.38;3.00;;;17.50;48.10;17.70;99255.00;;;;4871070;28;93771;-70
2022/04/24 08:28:09;;;;;;;3.15;2.85;;;17.60;48.10;17.60;99247.00;;;;4871755;28;94027;-70
2022/04/24 08:30:38;;;;;;;3.20;2.20;;;17.50;47.30;17.60;99245.00;;;;4871227;28;93198;-69
2022/04/24 08:33:04;;;;;;;2.80;2.60;;;17.50;47.20;17.80;99257.00;;;;4851029;28;93106;-69
2022/04/24 08:35:30;;;;;;;3.90;2.45;;;17.50;47.70;17.70;99268.00;;;;4869375;28;122335;-69
2022/04/24 08:37:56;;;;;;;3.60;2.13;;;17.60;46.50;17.50;99266.00;;;;4870921;28;92976;-69
2022/04/24 08:40:24;;;;;;;3.15;2.30;;;17.50;46.60;17.30;99269.00;;;;4870230;28;110937;-69
2022/04/24 08:42:52;;;;;;;3.08;2.38;;;17.20;46.90;17.00;99254.00;;;;4871075;28;92915;-69
2022/04/24 08:45:18;;;;;;;5.50;1.92;;;17.00;47.00;16.80;99277.00;;;;4869022;28;94365;-70
2022/04/24 08:47:44;;;;;;;8.13;1.92;;;16.80;47.40;16.80;99272.00;;;;4869171;28;106748;-69
2022/04/24 08:50:12;;;;;;;3.83;2.30;;;16.70;48.00;16.70;99262.00;;;;4870729;28;93160;-70
2022/04/24 08:52:43;;;;;;;2.63;2.42;;;16.60;47.90;16.80;99260.00;;;;4871087;28;93153;-70
2022/04/24 08:55:09;;;;;;;3.75;2.60;;;16.60;48.20;16.80;99263.00;;;;4869155;28;93576;-71
2022/04/24 08:57:35;;;;;;;4.15;3.00;;;16.60;48.40;16.90;99258.00;;;;4859906;28;107796;-69
2022/04/24 09:00:04;;;;;;;2.92;2.45;;;16.60;48.40;16.90;99262.00;;;;4869749;28;110218;-69
2022/04/24 09:02:36;;;;;;;4.05;2.85;;;16.70;47.90;16.90;99247.00;;;;4868909;28;92107;-69
2022/04/24 09:05:06;;;;;;;3.33;2.20;;;16.70;48.00;17.00;99245.00;;;;4848134;28;120843;-69
2022/04/24 09:07:33;;;;;;;5.68;2.60;;;16.70;48.30;17.10;99268.00;;;;4873278;28;93786;-69
2022/04/24 09:10:11;;;;;;;3.42;2.28;;;16.80;48.00;17.10;99246.00;;;;4874443;28;93896;-69
2022/04/24 09:12:38;;;;;;;4.00;2.75;;;16.90;48.00;17.20;99250.00;;;;4864579;28;93187;-69
2022/04/24 09:15:05;;;;;;;2.03;1.90;;;16.90;47.60;17.20;99234.00;;;;4869593;28;93786;-70
2022/04/24 09:17:33;;;;;;;3.70;2.80;;;17.00;47.40;17.40;99243.00;;;;4873399;28;93089;-70
2022/04/24 09:20:00;;;;;;;6.40;2.15;;;17.10;47.80;17.40;99257.00;;;;4874413;28;92798;-69
2022/04/24 09:22:26;;;;;;;4.10;2.33;;;17.20;47.50;17.40;99256.00;;;;4874001;28;93052;-69
2022/04/24 09:24:56;;;;;;;3.05;2.28;;;17.20;47.50;17.50;99236.00;;;;4853913;28;121114;-69
2022/04/24 09:27:25;;;;;;;3.17;2.40;;;17.30;48.00;17.70;99243.00;;;;4874201;28;93736;-69
2022/04/24 09:29:57;;;;;;;2.05;1.85;;;17.40;48.40;18.00;99253.00;;;;4873769;28;93090;-69
2022/04/24 09:32:26;;;;;;;1.98;1.58;;;17.60;47.70;18.00;99258.00;;;;4874052;28;93093;-69
2022/04/24 09:34:53;;;;;;;3.35;2.22;;;17.80;46.80;18.00;99249.00;;;;4867961;28;111108;-70
2022/04/24 09:37:19;;;;;;;2.38;2.17;;;17.80;46.90;18.00;99247.00;;;;4855370;28;93257;-69
2022/04/24 09:39:45;;;;;;;2.83;1.58;;;17.80;47.40;18.10;99250.00;;;;4873972;28;92729;-69
2022/04/24 09:42:14;;;;;;;3.25;2.42;;;17.90;47.60;18.10;99254.00;;;;4872413;28;92811;-69
2022/04/24 09:44:41;;;;;;;2.28;2.08;;;17.80;46.70;18.10;99258.00;;;;4867880;28;108972;-70
2022/04/24 09:47:08;;;;;;;2.50;2.30;;;17.90;47.00;18.10;99256.00;;;;4872782;28;94407;-69
2022/04/24 09:49:38;;;;;;;2.80;2.13;;;17.90;47.10;18.10;99246.00;;;;4873724;28;93142;-70
2022/04/24 09:52:16;;;;;;;2.00;1.88;;;17.90;47.00;18.00;99264.00;;;;4839840;28;92422;-70
2022/04/24 09:54:45;;;;;;;10.30;2.08;;;17.80;46.10;17.90;99253.00;;;;4854313;28;93383;-69
2022/04/24 09:57:14;;;;;;;2.05;1.70;;;17.80;46.20;17.80;99246.00;;;;4852744;28;94963;-68
2022/04/24 09:59:43;;;;;;;3.05;1.98;;;17.70;45.60;17.50;99251.00;;;;4872929;28;93939;-70
2022/04/24 10:02:11;;;;;;;2.38;2.03;;;17.50;45.10;17.30;99249.00;;;;4873543;28;93017;-69
2022/04/24 10:04:39;;;;;;;5.85;1.85;;;17.30;46.10;17.40;99240.00;;;;4867404;28;93389;-69
2022/04/24 10:07:08;;;;;;;3.00;2.22;;;17.20;46.90;17.40;99247.00;;;;4855304;28;92925;-70
2022/04/24 10:09:37;;;;;;;5.90;2.38;;;17.20;47.10;17.50;99249.00;;;;4873261;28;92753;-69
2022/04/24 10:12:08;;;;;;;4.68;2.50;;;17.30;47.20;17.50;99244.00;;;;4871303;28;93267;-70
2022/04/24 10:14:51;;;;;;;6.20;2.08;;;17.30;46.80;17.50;99254.00;;;;4866268;28;109081;-69
2022/04/24 10:17:42;;;;;;;1.70;1.60;;;17.30;46.30;17.40;99245.00;;;;4854926;28;92635;-69
2022/04/24 10:20:51;;;;;;;3.80;1.95;;;17.30;46.10;17.30;99235.00;;;;4873007;28;92828;-70
2022/04/24 10:23:33;;;;;;;5.25;1.70;;;17.20;45.70;17.30;99246.00;;;;4872763;28;93219;-70
2022/04/24 10:26:00;;;;;;;2.75;2.15;;;17.20;46.00;17.30;99227.00;;;;4870620;28;95322;-70
2022/04/24 10:28:38;;;;;;;3.90;2.38;;;17.10;45.60;17.20;99234.00;;;;4872387;28;94474;-70
2022/04/24 10:31:05;;;;;;;2.75;2.17;;;17.10;45.70;17.30;99230.00;;;;4873385;28;93025;-70
2022/04/24 10:33:34;;;;;;;2.65;1.58;;;17.10;46.30;17.30;99227.00;;;;4872613;28;92881;-70
2022/04/24 10:36:08;;;;;;;3.55;1.92;;;17.10;45.40;17.40;99220.00;;;;4872413;28;97436;-70
2022/04/24 10:38:50;;;;;;;2.92;1.77;;;17.10;45.50;17.40;99216.00;;;;4852719;28;112321;-70
2022/04/24 10:41:29;;;;;;;3.30;1.83;;;17.20;45.60;17.50;99219.00;;;;4839024;28;93298;-70
2022/04/24 10:44:08;;;;;;;1.42;1.33;;;17.30;45.50;17.70;99211.00;;;;4855488;28;92147;-70
2022/04/24 10:46:42;;;;;;;2.00;1.75;;;17.50;45.60;18.00;99208.00;;;;4872884;28;92961;-70
2022/04/24 10:49:16;;;;;;;4.25;1.65;;;17.70;45.20;18.10;99187.00;;;;4871878;28;94417;-70
2022/04/24 10:51:57;;;;;;;2.10;1.48;;;17.80;44.90;18.30;99216.00;;;;4871847;28;93882;-70
2022/04/24 10:54:40;;;;;;;3.47;2.03;;;18.00;45.80;18.40;99196.00;;;;4871159;28;92843;-69
2022/04/24 10:57:21;;;;;;;2.45;1.80;;;18.10;45.40;18.40;99208.00;;;;4868483;28;94100;-71
2022/04/24 10:59:52;;;;;;;3.40;2.15;;;18.20;44.40;18.50;99198.00;;;;4872275;28;106798;-69